createdAt,value
2022-11-30T00:00:49.234Z,1010.11
2022-11-30T00:03:49.234Z,1010.14
2022-11-30T00:06:49.228Z,1010.15
2022-11-30T00:09:49.229Z,1010.09
2022-11-30T00:12:49.230Z,1010.05
2022-11-30T00:15:49.234Z,1010.06
2022-11-30T00:18:49.234Z,1010.06
2022-11-30T00:21:49.228Z,1010.05
2022-11-30T00:24:49.409Z,1010.07
2022-11-30T00:27:49.229Z,1010.06
2022-11-30T00:30:49.235Z,1010.1
2022-11-30T00:33:49.237Z,1010.05
2022-11-30T00:36:49.239Z,1010.01
2022-11-30T00:39:49.228Z,1010
2022-11-30T00:42:49.224Z,1010.02
2022-11-30T00:45:49.258Z,1010.05
2022-11-30T00:48:49.225Z,1010.04
2022-11-30T00:51:49.221Z,1010.01
2022-11-30T00:54:49.363Z,1010.04
2022-11-30T00:57:49.298Z,1010
2022-11-30T01:00:49.217Z,1009.95
2022-11-30T01:03:49.212Z,1009.93
2022-11-30T01:06:49.219Z,1009.91
2022-11-30T01:09:49.213Z,1009.92
2022-11-30T01:12:49.214Z,1009.93
2022-11-30T01:15:49.242Z,1010
2022-11-30T01:18:49.213Z,1010.05
2022-11-30T01:21:49.212Z,1010.07
2022-11-30T01:24:49.391Z,1010.07
2022-11-30T01:27:49.207Z,1010.01
2022-11-30T01:30:49.240Z,1009.96
2022-11-30T01:33:49.207Z,1009.94
2022-11-30T01:36:49.212Z,1009.95
2022-11-30T01:39:49.212Z,1010.01
2022-11-30T01:42:49.208Z,1010.01
2022-11-30T01:45:49.222Z,1010.03
2022-11-30T01:48:49.206Z,1010.08
2022-11-30T01:51:49.208Z,1010.05
2022-11-30T01:54:49.385Z,1010.05
2022-11-30T01:57:49.194Z,1010.09
2022-11-30T02:00:49.196Z,1010.09
2022-11-30T02:03:49.191Z,1010.08
2022-11-30T02:06:49.201Z,1010.04
2022-11-30T02:09:49.190Z,1010.08
2022-11-30T02:12:49.188Z,1010.12
2022-11-30T02:15:49.236Z,1010.13
2022-11-30T02:18:49.193Z,1010.16
2022-11-30T02:21:49.188Z,1010.15
2022-11-30T02:24:49.356Z,1010.18
2022-11-30T02:27:49.181Z,1010.2
2022-11-30T02:30:49.227Z,1010.16
2022-11-30T02:33:49.181Z,1010.16
2022-11-30T02:36:49.181Z,1010.12
2022-11-30T02:39:49.183Z,1010.12
2022-11-30T02:42:49.178Z,1010.1
2022-11-30T02:45:49.174Z,1010.14
2022-11-30T02:48:49.176Z,1010.12
2022-11-30T02:51:49.171Z,1010.16
2022-11-30T02:54:49.363Z,1010.11
2022-11-30T02:57:49.173Z,1010.14
2022-11-30T03:00:49.162Z,1010.17
2022-11-30T03:03:49.171Z,1010.19
2022-11-30T03:06:49.164Z,1010.2
2022-11-30T03:09:49.164Z,1010.18
2022-11-30T03:12:49.163Z,1010.21
2022-11-30T03:15:49.236Z,1010.24
2022-11-30T03:18:49.146Z,1010.28
2022-11-30T03:21:49.157Z,1010.31
2022-11-30T03:24:49.480Z,1010.3
2022-11-30T03:27:49.146Z,1010.31
2022-11-30T03:30:49.179Z,1010.33
2022-11-30T03:33:49.148Z,1010.31
2022-11-30T03:36:49.150Z,1010.32
2022-11-30T03:39:52.468Z,1010.31
2022-11-30T03:42:49.141Z,1010.32
2022-11-30T03:45:49.140Z,1010.33
2022-11-30T03:48:49.135Z,1010.32
2022-11-30T03:51:49.135Z,1010.3
2022-11-30T03:54:49.355Z,1010.29
2022-11-30T03:57:49.134Z,1010.32
2022-11-30T04:00:49.132Z,1010.34
2022-11-30T04:03:49.128Z,1010.33
2022-11-30T04:06:49.123Z,1010.3
2022-11-30T04:09:49.133Z,1010.32
2022-11-30T04:12:49.127Z,1010.28
2022-11-30T04:15:49.203Z,1010.29
2022-11-30T04:18:49.114Z,1010.33
2022-11-30T04:21:49.116Z,1010.3
2022-11-30T04:24:49.352Z,1010.35
2022-11-30T04:27:49.189Z,1010.34
2022-11-30T04:30:49.099Z,1010.41
2022-11-30T04:33:49.113Z,1010.44
2022-11-30T04:36:49.114Z,1010.42
2022-11-30T04:39:49.102Z,1010.42
2022-11-30T04:42:49.113Z,1010.37
2022-11-30T04:45:49.106Z,1010.37
2022-11-30T04:48:49.105Z,1010.39
2022-11-30T04:51:49.102Z,1010.36
2022-11-30T04:54:49.572Z,1010.4
2022-11-30T04:57:49.105Z,1010.4
2022-11-30T05:00:49.111Z,1010.35
2022-11-30T05:03:49.110Z,1010.36
2022-11-30T05:06:49.104Z,1010.39
2022-11-30T05:09:49.103Z,1010.44
2022-11-30T05:12:49.157Z,1010.38
2022-11-30T05:15:49.146Z,1010.44
2022-11-30T05:18:49.104Z,1010.4
2022-11-30T05:21:49.101Z,1010.47
2022-11-30T05:24:49.306Z,1010.46
2022-11-30T05:27:49.094Z,1010.5
2022-11-30T05:30:49.091Z,1010.52
2022-11-30T05:33:49.093Z,1010.56
2022-11-30T05:36:49.100Z,1010.56
2022-11-30T05:39:49.097Z,1010.61
2022-11-30T05:42:49.089Z,1010.64
2022-11-30T05:45:49.088Z,1010.59
2022-11-30T05:48:49.088Z,1010.56
2022-11-30T05:51:49.085Z,1010.61
2022-11-30T05:54:49.340Z,1010.64
2022-11-30T05:57:49.083Z,1010.64
2022-11-30T06:00:49.087Z,1010.68
2022-11-30T06:03:49.085Z,1010.65
2022-11-30T06:06:49.095Z,1010.63
2022-11-30T06:09:49.081Z,1010.68
2022-11-30T06:12:49.083Z,1010.68
2022-11-30T06:15:49.082Z,1010.67
2022-11-30T06:18:49.078Z,1010.69
2022-11-30T06:21:49.082Z,1010.7
2022-11-30T06:24:49.324Z,1010.68
2022-11-30T06:27:49.079Z,1010.73
2022-11-30T06:30:49.078Z,1010.73
2022-11-30T06:33:49.081Z,1010.72
2022-11-30T06:36:49.074Z,1010.75
2022-11-30T06:40:05.736Z,1010.8
2022-11-30T06:42:49.071Z,1010.82
2022-11-30T06:45:49.113Z,1010.81
2022-11-30T06:48:49.070Z,1010.82
2022-11-30T06:51:49.069Z,1010.87
2022-11-30T06:54:49.292Z,1010.88
2022-11-30T06:57:49.066Z,1010.92
2022-11-30T07:00:49.143Z,1010.89
2022-11-30T07:03:49.098Z,1010.86
2022-11-30T07:06:49.068Z,1010.9
2022-11-30T07:09:49.068Z,1010.93
2022-11-30T07:12:49.063Z,1010.91
2022-11-30T07:15:49.063Z,1010.95
2022-11-30T07:18:49.059Z,1011.03
2022-11-30T07:21:49.064Z,1011.02
2022-11-30T07:24:49.332Z,1011
2022-11-30T07:27:49.056Z,1011.04
2022-11-30T07:30:49.057Z,1010.99
2022-11-30T07:33:49.060Z,1011.05
2022-11-30T07:36:49.054Z,1011.03
2022-11-30T07:39:49.050Z,1011.05
2022-11-30T07:42:49.052Z,1011.06
2022-11-30T07:45:49.089Z,1011.1
2022-11-30T07:48:49.058Z,1011.12
2022-11-30T07:51:49.050Z,1011.15
2022-11-30T07:54:49.274Z,1011.15
2022-11-30T07:57:49.082Z,1011.18
2022-11-30T08:00:49.124Z,1011.26
2022-11-30T08:03:49.053Z,1011.25
2022-11-30T08:06:49.053Z,1011.25
2022-11-30T08:09:49.068Z,1011.26
2022-11-30T08:12:49.052Z,1011.24
2022-11-30T08:15:49.053Z,1011.24
2022-11-30T08:18:49.059Z,1011.28
2022-11-30T08:21:49.060Z,1011.26
2022-11-30T08:24:49.431Z,1011.27
2022-11-30T08:27:49.050Z,1011.24
2022-11-30T08:30:49.126Z,1011.26
2022-11-30T08:33:49.058Z,1011.24
2022-11-30T08:36:51.921Z,1011.32
2022-11-30T08:39:49.054Z,1011.31
2022-11-30T08:42:49.049Z,1011.32
2022-11-30T08:45:52.723Z,1011.29
2022-11-30T08:48:49.046Z,1011.32
2022-11-30T08:52:15.210Z,1011.31
2022-11-30T08:54:49.282Z,1011.34
2022-11-30T08:57:49.045Z,1011.38
2022-11-30T09:00:49.190Z,1011.42
2022-11-30T09:03:49.044Z,1011.39
2022-11-30T09:06:49.041Z,1011.41
2022-11-30T09:09:49.042Z,1011.45
2022-11-30T09:12:49.044Z,1011.47
2022-11-30T09:15:49.067Z,1011.5
2022-11-30T09:18:49.039Z,1011.5
2022-11-30T09:21:51.766Z,1011.53
2022-11-30T09:24:49.430Z,1011.52
2022-11-30T09:27:49.036Z,1011.54
2022-11-30T09:30:49.126Z,1011.54
2022-11-30T09:33:49.040Z,1011.59
2022-11-30T09:36:49.039Z,1011.61
2022-11-30T09:39:49.033Z,1011.61
2022-11-30T09:42:49.028Z,1011.61
2022-11-30T09:45:49.064Z,1011.61
2022-11-30T09:48:49.033Z,1011.54
2022-11-30T09:51:49.027Z,1011.53
2022-11-30T09:54:49.189Z,1011.52
2022-11-30T09:57:49.025Z,1011.5
2022-11-30T10:00:49.027Z,1011.55
2022-11-30T10:03:49.062Z,1011.56
2022-11-30T10:06:49.030Z,1011.61
2022-11-30T10:10:02.850Z,1011.6
2022-11-30T10:12:49.022Z,1011.58
2022-11-30T10:15:49.038Z,1011.58
2022-11-30T10:18:49.016Z,1011.58
2022-11-30T10:21:49.021Z,1011.55
2022-11-30T10:24:49.404Z,1011.59
2022-11-30T10:27:49.017Z,1011.56
2022-11-30T10:30:49.107Z,1011.56
2022-11-30T10:33:49.021Z,1011.55
2022-11-30T10:36:49.026Z,1011.53
2022-11-30T10:39:49.015Z,1011.55
2022-11-30T10:42:49.018Z,1011.5
2022-11-30T10:45:49.032Z,1011.49
2022-11-30T10:48:49.022Z,1011.45
2022-11-30T10:51:49.011Z,1011.44
2022-11-30T10:54:49.225Z,1011.44
2022-11-30T10:57:49.021Z,1011.48
2022-11-30T11:00:49.010Z,1011.49
2022-11-30T11:03:49.046Z,1011.44
2022-11-30T11:06:49.182Z,1011.46
2022-11-30T11:09:49.392Z,1011.45
2022-11-30T11:12:49.012Z,1011.44
2022-11-30T11:15:49.015Z,1011.42
2022-11-30T11:18:49.003Z,1011.36
2022-11-30T11:21:49.011Z,1011.36
2022-11-30T11:24:49.014Z,1011.35
2022-11-30T11:27:49.006Z,1011.36
2022-11-30T11:30:49.945Z,1011.38
2022-11-30T11:33:49.425Z,1011.38
2022-11-30T11:36:49.417Z,1011.35
2022-11-30T11:39:49.604Z,1011.32
2022-11-30T11:42:49.411Z,1011.38
2022-11-30T11:45:49.422Z,1011.39
2022-11-30T11:48:49.407Z,1011.32
2022-11-30T11:51:49.415Z,1011.35
2022-11-30T11:54:49.408Z,1011.35
2022-11-30T11:57:49.413Z,1011.32
2022-11-30T12:00:49.415Z,1011.35
2022-11-30T12:03:49.425Z,1011.31
2022-11-30T12:06:49.446Z,1011.26
2022-11-30T12:09:49.497Z,1011.26
2022-11-30T12:12:53.436Z,1011.3
2022-11-30T12:15:49.414Z,1011.27
2022-11-30T12:18:49.405Z,1011.26
2022-11-30T12:21:49.400Z,1011.29
2022-11-30T12:24:49.407Z,1011.28
2022-11-30T12:27:53.753Z,1011.28
2022-11-30T12:30:49.407Z,1011.34
2022-11-30T12:33:49.398Z,1011.31
2022-11-30T12:36:49.393Z,1011.33
2022-11-30T12:39:49.652Z,1011.32
2022-11-30T12:42:49.396Z,1011.28
2022-11-30T12:45:49.392Z,1011.28
2022-11-30T12:48:49.409Z,1011.28
2022-11-30T12:51:49.391Z,1011.3
2022-11-30T12:54:49.566Z,1011.32
2022-11-30T12:57:49.385Z,1011.38
2022-11-30T13:00:49.389Z,1011.35
2022-11-30T13:03:49.395Z,1011.33
2022-11-30T13:06:49.385Z,1011.37
2022-11-30T13:09:49.386Z,1011.35
2022-11-30T13:12:49.394Z,1011.33
2022-11-30T13:15:49.504Z,1011.35
2022-11-30T13:18:49.383Z,1011.39
2022-11-30T13:21:49.382Z,1011.39
2022-11-30T13:24:49.597Z,1011.36
2022-11-30T13:27:49.384Z,1011.39
2022-11-30T13:30:49.380Z,1011.39
2022-11-30T13:33:49.398Z,1011.39
2022-11-30T13:36:49.380Z,1011.37
2022-11-30T13:39:49.378Z,1011.32
2022-11-30T13:42:51.859Z,1011.31
2022-11-30T13:45:49.385Z,1011.29
2022-11-30T13:48:49.388Z,1011.32
2022-11-30T13:52:01.648Z,1011.35
2022-11-30T13:54:49.576Z,1011.36
2022-11-30T13:57:49.373Z,1011.37
2022-11-30T14:00:49.412Z,1011.33
2022-11-30T14:03:54.178Z,1011.38
2022-11-30T14:06:49.372Z,1011.36
2022-11-30T14:09:49.549Z,1011.31
2022-11-30T14:12:49.370Z,1011.35
2022-11-30T14:15:49.422Z,1011.39
2022-11-30T14:18:49.370Z,1011.41
2022-11-30T14:21:49.373Z,1011.4
2022-11-30T14:24:49.371Z,1011.44
2022-11-30T14:27:49.366Z,1011.47
2022-11-30T14:30:49.356Z,1011.45
2022-11-30T14:33:49.362Z,1011.46
2022-11-30T14:36:49.369Z,1011.53
2022-11-30T14:39:49.557Z,1011.54
2022-11-30T14:42:49.357Z,1011.51
2022-11-30T14:45:49.367Z,1011.5
2022-11-30T14:48:49.365Z,1011.53
2022-11-30T14:51:49.355Z,1011.48
2022-11-30T14:54:49.363Z,1011.46
2022-11-30T14:57:49.387Z,1011.48
2022-11-30T15:00:49.373Z,1011.46
2022-11-30T15:03:49.351Z,1011.44
2022-11-30T15:06:49.352Z,1011.45
2022-11-30T15:09:49.505Z,1011.48
2022-11-30T15:12:49.347Z,1011.48
2022-11-30T15:15:49.347Z,1011.49
2022-11-30T15:18:49.351Z,1011.49
2022-11-30T15:21:49.407Z,1011.5
2022-11-30T15:24:49.555Z,1011.52
2022-11-30T15:27:49.348Z,1011.51
2022-11-30T15:30:49.340Z,1011.49
2022-11-30T15:33:49.361Z,1011.51
2022-11-30T15:36:49.345Z,1011.5
2022-11-30T15:39:49.634Z,1011.54
2022-11-30T15:42:49.363Z,1011.53
2022-11-30T15:45:49.379Z,1011.56
2022-11-30T15:48:49.346Z,1011.59
2022-11-30T15:51:54.555Z,1011.59
2022-11-30T15:54:49.375Z,1011.63
2022-11-30T15:57:49.353Z,1011.68
2022-11-30T16:00:49.381Z,1011.71
2022-11-30T16:03:49.348Z,1011.7
2022-11-30T16:06:49.351Z,1011.74
2022-11-30T16:09:49.665Z,1011.71
2022-11-30T16:12:49.350Z,1011.75
2022-11-30T16:15:49.348Z,1011.74
2022-11-30T16:18:49.346Z,1011.78
2022-11-30T16:21:49.356Z,1011.8
2022-11-30T16:24:49.337Z,1011.82
2022-11-30T16:27:49.347Z,1011.86
2022-11-30T16:30:49.345Z,1011.87
2022-11-30T16:33:49.335Z,1011.92
2022-11-30T16:36:49.349Z,1011.9
2022-11-30T16:39:49.598Z,1011.89
2022-11-30T16:42:49.343Z,1011.92
2022-11-30T16:45:49.362Z,1011.96
2022-11-30T16:48:49.342Z,1012.02
2022-11-30T16:51:49.339Z,1012.03
2022-11-30T16:54:49.343Z,1012.05
2022-11-30T16:57:49.352Z,1012.03
2022-11-30T17:00:49.356Z,1012.1
2022-11-30T17:03:49.339Z,1012.12
2022-11-30T17:06:50.814Z,1012.16
2022-11-30T17:09:49.336Z,1012.19
2022-11-30T17:12:49.336Z,1012.17
2022-11-30T17:15:49.338Z,1012.22
2022-11-30T17:18:49.334Z,1012.17
2022-11-30T17:21:49.335Z,1012.19
2022-11-30T17:24:49.552Z,1012.24
2022-11-30T17:27:49.331Z,1012.27
2022-11-30T17:30:49.358Z,1012.27
2022-11-30T17:33:49.325Z,1012.31
2022-11-30T17:36:49.326Z,1012.31
2022-11-30T17:39:49.332Z,1012.32
2022-11-30T17:42:49.332Z,1012.33
2022-11-30T17:45:49.367Z,1012.36
2022-11-30T17:48:49.368Z,1012.35
2022-11-30T17:51:49.350Z,1012.38
2022-11-30T17:54:49.579Z,1012.39
2022-11-30T17:57:49.334Z,1012.43
2022-11-30T18:00:49.329Z,1012.45
2022-11-30T18:03:49.325Z,1012.42
2022-11-30T18:06:49.327Z,1012.43
2022-11-30T18:09:49.350Z,1012.42
2022-11-30T18:12:49.324Z,1012.41
2022-11-30T18:15:49.322Z,1012.45
2022-11-30T18:18:49.321Z,1012.45
2022-11-30T18:21:49.324Z,1012.49
2022-11-30T18:24:49.546Z,1012.51
2022-11-30T18:27:49.318Z,1012.53
2022-11-30T18:30:49.395Z,1012.54
2022-11-30T18:33:49.318Z,1012.54
2022-11-30T18:36:49.323Z,1012.59
2022-11-30T18:39:49.316Z,1012.59
2022-11-30T18:42:49.320Z,1012.61
2022-11-30T18:45:49.345Z,1012.63
2022-11-30T18:48:49.323Z,1012.64
2022-11-30T18:51:49.337Z,1012.66
2022-11-30T18:54:49.584Z,1012.66
2022-11-30T18:57:49.323Z,1012.69
2022-11-30T19:00:49.324Z,1012.7
2022-11-30T19:03:49.331Z,1012.69
2022-11-30T19:06:49.325Z,1012.73
2022-11-30T19:09:49.321Z,1012.68
2022-11-30T19:12:49.340Z,1012.67
2022-11-30T19:15:49.320Z,1012.65
2022-11-30T19:18:49.327Z,1012.69
2022-11-30T19:21:49.316Z,1012.75
2022-11-30T19:24:49.517Z,1012.72
2022-11-30T19:27:49.318Z,1012.81
2022-11-30T19:30:49.363Z,1012.77
2022-11-30T19:33:49.308Z,1012.84
2022-11-30T19:36:49.315Z,1012.86
2022-11-30T19:39:49.315Z,1012.86
2022-11-30T19:42:49.303Z,1012.84
2022-11-30T19:45:49.337Z,1012.84
2022-11-30T19:48:49.308Z,1012.82
2022-11-30T19:51:49.297Z,1012.85
2022-11-30T19:54:49.457Z,1012.9
2022-11-30T19:57:49.308Z,1012.92
2022-11-30T20:00:49.302Z,1012.97
2022-11-30T20:03:49.298Z,1012.93
2022-11-30T20:06:49.299Z,1012.96
2022-11-30T20:09:49.303Z,1012.94
2022-11-30T20:12:49.299Z,1012.9
2022-11-30T20:15:49.303Z,1012.98
2022-11-30T20:18:49.291Z,1012.98
2022-11-30T20:21:49.364Z,1012.97
2022-11-30T20:24:49.546Z,1012.97
2022-11-30T20:27:49.327Z,1012.99
2022-11-30T20:30:49.338Z,1013.02
2022-11-30T20:33:49.288Z,1012.99
2022-11-30T20:36:49.305Z,1013.03
2022-11-30T20:39:49.287Z,1013.05
2022-11-30T20:42:49.290Z,1013.02
2022-11-30T20:45:49.333Z,1013
2022-11-30T20:48:49.289Z,1012.98
2022-11-30T20:51:49.283Z,1012.97
2022-11-30T20:54:49.495Z,1013
2022-11-30T20:57:49.287Z,1012.98
2022-11-30T21:00:49.286Z,1013.02
2022-11-30T21:03:49.284Z,1013.01
2022-11-30T21:06:49.284Z,1013.03
2022-11-30T21:09:49.277Z,1013.09
2022-11-30T21:12:49.277Z,1013.09
2022-11-30T21:15:49.297Z,1013.08
2022-11-30T21:18:49.275Z,1013.08
2022-11-30T21:21:49.274Z,1013.08
2022-11-30T21:24:49.487Z,1013.1
2022-11-30T21:27:49.274Z,1013.06
2022-11-30T21:30:49.295Z,1013.05
2022-11-30T21:33:52.622Z,1013.04
2022-11-30T21:36:49.284Z,1013.08
2022-11-30T21:39:49.273Z,1013.08
2022-11-30T21:42:49.271Z,1013.07
2022-11-30T21:45:49.275Z,1013.12
2022-11-30T21:48:49.269Z,1013.13
2022-11-30T21:51:49.269Z,1013.1
2022-11-30T21:54:49.371Z,1013.06
2022-11-30T21:57:49.266Z,1013.08
2022-11-30T22:00:49.267Z,1013.04
2022-11-30T22:03:49.331Z,1013.05
2022-11-30T22:06:49.262Z,1013.05
2022-11-30T22:09:49.416Z,1013.05
2022-11-30T22:12:49.264Z,1013.09
2022-11-30T22:15:49.327Z,1013.1
2022-11-30T22:18:49.266Z,1013.13
2022-11-30T22:21:50.342Z,1013.11
2022-11-30T22:24:49.262Z,1013.13
2022-11-30T22:27:49.255Z,1013.14
2022-11-30T22:30:49.326Z,1013.16
2022-11-30T22:33:49.254Z,1013.14
2022-11-30T22:36:49.257Z,1013.16
2022-11-30T22:39:49.430Z,1013.12
2022-11-30T22:42:49.255Z,1013.14
2022-11-30T22:45:49.255Z,1013.13
2022-11-30T22:48:49.259Z,1013.13
2022-11-30T22:51:49.254Z,1013.16
2022-11-30T22:54:49.340Z,1013.16
2022-11-30T22:57:49.258Z,1013.2
2022-11-30T23:00:49.249Z,1013.19
2022-11-30T23:03:49.292Z,1013.22
2022-11-30T23:06:49.258Z,1013.21
2022-11-30T23:09:49.416Z,1013.21
2022-11-30T23:12:59.364Z,1013.19
2022-11-30T23:15:49.273Z,1013.23
2022-11-30T23:18:49.256Z,1013.21
2022-11-30T23:21:49.244Z,1013.18
2022-11-30T23:24:49.246Z,1013.2
2022-11-30T23:27:49.241Z,1013.18
2022-11-30T23:30:49.244Z,1013.17
2022-11-30T23:33:49.241Z,1013.2
2022-11-30T23:36:49.235Z,1013.2
2022-11-30T23:39:49.403Z,1013.24
2022-11-30T23:42:49.232Z,1013.25
2022-11-30T23:45:49.232Z,1013.24
2022-11-30T23:48:49.238Z,1013.22
2022-11-30T23:51:49.235Z,1013.2
2022-11-30T23:54:49.234Z,1013.2
2022-11-30T23:57:49.228Z,1013.2
